createdAt,value
2023-03-13T00:01:37.802Z,33.21
2023-03-13T00:04:06.058Z,32.78
2023-03-13T00:06:43.372Z,33.01
2023-03-13T00:09:12.779Z,33.06
2023-03-13T00:11:44.353Z,32.75
2023-03-13T00:14:15.181Z,32.87
2023-03-13T00:16:43.497Z,33.03
2023-03-13T00:19:12.754Z,32.73
2023-03-13T00:21:43.692Z,32.50
2023-03-13T00:24:17.600Z,33.25
2023-03-13T00:26:45.870Z,32.52
2023-03-13T00:29:13.846Z,32.22
2023-03-13T00:31:47.692Z,32.18
2023-03-13T00:34:17.771Z,32.34
2023-03-13T00:36:46.619Z,32.32
2023-03-13T00:39:15.842Z,32.05
2023-03-13T00:41:46.407Z,32.25
2023-03-13T00:44:14.841Z,32.11
2023-03-13T00:46:43.226Z,32.22
2023-03-13T00:49:11.418Z,32.54
2023-03-13T00:51:42.689Z,32.12
2023-03-13T00:54:11.061Z,32.25
2023-03-13T00:56:42.310Z,32.63
2023-03-13T00:59:10.384Z,32.68
2023-03-13T01:01:38.636Z,32.64
2023-03-13T01:04:08.581Z,32.87
2023-03-13T01:06:40.856Z,33.22
2023-03-13T01:09:10.634Z,33.28
2023-03-13T01:11:40.570Z,32.69
2023-03-13T01:14:11.801Z,33.01
2023-03-13T01:16:47.731Z,33.08
2023-03-13T01:19:16.749Z,33.20
2023-03-13T01:21:47.035Z,33.12
2023-03-13T01:24:15.241Z,33.07
2023-03-13T01:26:50.802Z,32.85
2023-03-13T01:29:20.392Z,32.76
2023-03-13T01:31:49.213Z,32.41
2023-03-13T01:34:23.107Z,32.37
2023-03-13T01:36:54.398Z,32.21
2023-03-13T01:39:22.619Z,32.17
2023-03-13T01:41:50.801Z,32.11
2023-03-13T01:44:24.466Z,31.67
2023-03-13T01:46:53.609Z,31.17
2023-03-13T01:49:33.440Z,31.12
2023-03-13T01:52:08.696Z,31.06
2023-03-13T01:55:04.523Z,31.28
2023-03-13T01:57:43.175Z,31.48
2023-03-13T02:00:18.497Z,31.00
2023-03-13T02:02:50.785Z,30.40
2023-03-13T02:05:21.279Z,30.15
2023-03-13T02:07:53.714Z,30.11
2023-03-13T02:10:22.320Z,29.88
2023-03-13T02:12:51.739Z,30.09
2023-03-13T02:15:22.626Z,30.16
2023-03-13T02:17:51.350Z,30.44
2023-03-13T02:20:27.112Z,30.37
2023-03-13T02:23:27.722Z,30.19
2023-03-13T02:25:56.329Z,30.21
2023-03-13T02:28:35.347Z,29.89
2023-03-13T02:31:07.062Z,29.78
2023-03-13T02:33:38.776Z,30.13
2023-03-13T02:36:10.627Z,29.93
2023-03-13T02:38:52.106Z,29.50
2023-03-13T02:41:20.194Z,29.77
2023-03-13T02:43:48.382Z,29.67
2023-03-13T02:46:18.591Z,29.90
2023-03-13T02:48:55.255Z,29.89
2023-03-13T02:51:33.431Z,29.93
2023-03-13T02:54:04.002Z,30.25
2023-03-13T02:56:34.155Z,30.55
2023-03-13T02:59:02.254Z,30.34
2023-03-13T03:01:32.927Z,30.71
2023-03-13T03:04:01.043Z,30.46
2023-03-13T03:06:36.116Z,30.25
2023-03-13T03:09:05.168Z,30.11
2023-03-13T03:11:35.239Z,30.22
2023-03-13T03:14:07.229Z,30.44
2023-03-13T03:16:38.888Z,30.34
2023-03-13T03:19:08.580Z,30.27
2023-03-13T03:21:38.113Z,30.28
2023-03-13T03:24:06.770Z,30.35
2023-03-13T03:26:35.326Z,30.43
2023-03-13T03:29:05.486Z,30.28
2023-03-13T03:31:37.043Z,30.03
2023-03-13T03:34:05.582Z,30.14
2023-03-13T03:36:33.702Z,30.25
2023-03-13T03:39:02.545Z,29.98
2023-03-13T03:41:31.754Z,29.92
2023-03-13T03:43:59.968Z,29.72
2023-03-13T03:46:33.649Z,29.42
2023-03-13T03:49:02.056Z,29.58
2023-03-13T03:51:30.275Z,29.79
2023-03-13T03:53:58.453Z,29.97
2023-03-13T03:56:26.629Z,30.22
2023-03-13T03:58:56.548Z,30.15
2023-03-13T04:01:47.846Z,30.43
2023-03-13T04:04:20.734Z,30.20
2023-03-13T04:06:53.050Z,30.45
2023-03-13T04:09:21.343Z,30.84
2023-03-13T04:11:55.414Z,30.74
2023-03-13T04:14:25.511Z,30.99
2023-03-13T04:16:53.816Z,31.19
2023-03-13T04:19:22.087Z,31.35
2023-03-13T04:21:50.763Z,31.42
2023-03-13T04:24:20.513Z,31.47
2023-03-13T04:26:49.023Z,31.81
2023-03-13T04:29:17.252Z,32.20
2023-03-13T04:32:11.530Z,32.12
2023-03-13T04:35:11.574Z,32.30
2023-03-13T04:38:11.972Z,32.91
2023-03-13T04:40:58.414Z,32.76
2023-03-13T04:43:49.157Z,32.62
2023-03-13T04:46:37.702Z,32.41
2023-03-13T04:49:29.562Z,32.45
2023-03-13T04:52:22.408Z,32.45
2023-03-13T04:55:14.744Z,32.68
2023-03-13T04:57:52.545Z,32.74
2023-03-13T05:00:50.172Z,32.82
2023-03-13T05:03:29.546Z,32.10
2023-03-13T05:06:17.868Z,31.80
2023-03-13T05:09:24.303Z,32.08
2023-03-13T05:12:15.077Z,32.12
2023-03-13T05:15:08.006Z,32.70
2023-03-13T05:18:04.572Z,33.14
2023-03-13T05:21:06.227Z,32.34
2023-03-13T05:23:54.461Z,30.94
2023-03-13T05:26:37.178Z,29.46
2023-03-13T05:29:32.757Z,27.54
2023-03-13T05:32:30.620Z,26.08
2023-03-13T05:35:15.352Z,25.17
2023-03-13T05:37:59.800Z,23.96
2023-03-13T05:40:51.204Z,23.86
2023-03-13T05:43:38.448Z,23.20
2023-03-13T05:46:12.579Z,22.68
2023-03-13T05:48:57.396Z,22.32
2023-03-13T05:51:44.540Z,22.21
2023-03-13T05:54:31.871Z,22.12
2023-03-13T05:57:23.448Z,21.94
2023-03-13T06:00:09.524Z,21.48
2023-03-13T06:02:57.625Z,21.09
2023-03-13T06:05:32.327Z,20.89
2023-03-13T06:08:03.158Z,20.88
2023-03-13T06:10:32.580Z,20.95
2023-03-13T06:13:13.661Z,21.22
2023-03-13T06:15:53.872Z,21.32
2023-03-13T06:18:43.047Z,20.89
2023-03-13T06:21:11.223Z,21.08
2023-03-13T06:23:39.552Z,20.06
2023-03-13T06:26:07.829Z,20.08
2023-03-13T06:28:39.095Z,20.41
2023-03-13T06:31:08.406Z,20.56
2023-03-13T06:33:37.437Z,20.23
2023-03-13T06:36:06.910Z,20.36
2023-03-13T06:38:35.458Z,20.76
2023-03-13T06:41:03.956Z,21.09
2023-03-13T06:43:32.740Z,21.89
2023-03-13T06:46:07.964Z,22.24
2023-03-13T06:48:38.844Z,22.34
2023-03-13T06:51:11.761Z,21.92
2023-03-13T06:53:41.856Z,21.71
2023-03-13T06:56:10.140Z,21.82
2023-03-13T06:58:38.210Z,21.96
2023-03-13T07:01:11.296Z,21.86
2023-03-13T07:03:39.809Z,21.37
2023-03-13T07:06:08.450Z,21.21
2023-03-13T07:08:36.929Z,21.55
2023-03-13T07:11:07.267Z,21.92
2023-03-13T07:13:37.476Z,22.07
2023-03-13T07:16:12.994Z,22.37
2023-03-13T07:18:47.447Z,22.19
2023-03-13T07:21:15.723Z,22.36
2023-03-13T07:23:45.983Z,23.20
2023-03-13T07:26:15.330Z,23.49
2023-03-13T07:28:44.480Z,23.22
2023-03-13T07:31:16.550Z,23.55
2023-03-13T07:33:46.077Z,23.19
2023-03-13T07:36:16.796Z,22.91
2023-03-13T07:38:48.539Z,23.71
2023-03-13T07:41:17.077Z,23.56
2023-03-13T07:43:45.365Z,23.38
2023-03-13T07:46:18.888Z,23.06
2023-03-13T07:48:48.034Z,22.86
2023-03-13T07:51:33.526Z,22.82
2023-03-13T07:54:06.970Z,22.19
2023-03-13T07:56:36.026Z,22.21
2023-03-13T07:59:04.748Z,21.46
2023-03-13T08:01:33.976Z,20.97
2023-03-13T08:04:02.671Z,20.97
2023-03-13T08:06:33.928Z,21.43
2023-03-13T08:09:02.858Z,21.09
2023-03-13T08:11:34.238Z,20.73
2023-03-13T08:14:03.378Z,21.59
2023-03-13T08:16:34.667Z,21.41
2023-03-13T08:19:05.850Z,22.21
2023-03-13T08:21:35.481Z,22.50
2023-03-13T08:24:06.906Z,22.50
2023-03-13T08:26:41.979Z,23.06
2023-03-13T08:30:33.484Z,26.33
2023-03-13T08:33:01.512Z,23.97
2023-03-13T08:35:30.603Z,23.80
2023-03-13T08:37:59.282Z,24.38
2023-03-13T08:40:27.325Z,23.94
2023-03-13T08:42:58.039Z,23.56
2023-03-13T08:45:26.135Z,24.08
2023-03-13T08:47:54.297Z,24.12
2023-03-13T08:50:24.444Z,24.32
2023-03-13T08:52:52.887Z,24.44
2023-03-13T08:55:20.912Z,24.36
2023-03-13T08:57:48.827Z,24.07
2023-03-13T09:00:18.776Z,24.10
2023-03-13T09:02:47.069Z,24.13
2023-03-13T09:05:15.329Z,24.29
2023-03-13T09:07:43.567Z,24.86
2023-03-13T09:10:12.704Z,24.95
2023-03-13T09:12:41.763Z,24.32
2023-03-13T09:15:15.729Z,24.39
2023-03-13T09:17:44.995Z,24.25
2023-03-13T09:20:13.150Z,24.43
2023-03-13T09:22:42.726Z,24.16
2023-03-13T09:25:11.507Z,23.62
2023-03-13T09:27:40.925Z,23.73
2023-03-13T09:30:10.107Z,23.64
2023-03-13T09:32:38.160Z,23.60
2023-03-13T09:35:07.945Z,23.96
2023-03-13T09:37:37.056Z,23.66
2023-03-13T09:40:08.528Z,23.23
2023-03-13T09:42:52.807Z,23.54
2023-03-13T09:45:36.072Z,23.27
2023-03-13T09:48:34.024Z,22.83
2023-03-13T09:51:13.704Z,22.51
2023-03-13T09:54:03.563Z,22.40
2023-03-13T09:56:37.438Z,22.28
2023-03-13T09:59:32.602Z,21.58
2023-03-13T10:02:01.875Z,21.84
2023-03-13T10:04:41.178Z,21.86
2023-03-13T10:07:12.595Z,22.17
2023-03-13T10:09:42.580Z,21.80
2023-03-13T10:12:18.503Z,21.78
2023-03-13T10:15:05.550Z,22.12
2023-03-13T10:17:39.084Z,22.01
2023-03-13T10:20:28.024Z,21.42
2023-03-13T10:23:14.412Z,21.52
2023-03-13T10:25:42.605Z,21.68
2023-03-13T10:28:15.607Z,21.30
2023-03-13T10:30:47.770Z,21.08
2023-03-13T10:33:25.996Z,21.13
2023-03-13T10:36:10.911Z,20.55
2023-03-13T10:38:46.799Z,20.57
2023-03-13T10:41:26.135Z,20.54
2023-03-13T10:44:15.387Z,20.42
2023-03-13T10:46:46.470Z,21.29
2023-03-13T10:49:20.185Z,21.32
2023-03-13T10:51:50.972Z,21.59
2023-03-13T10:54:24.157Z,21.54
2023-03-13T10:57:09.729Z,20.85
2023-03-13T10:59:40.937Z,20.99
2023-03-13T11:02:18.928Z,21.51
2023-03-13T11:04:49.648Z,21.68
2023-03-13T11:07:36.237Z,21.18
2023-03-13T11:10:27.301Z,20.97
2023-03-13T11:13:04.157Z,20.25
2023-03-13T11:15:50.664Z,20.27
2023-03-13T11:18:46.014Z,20.36
2023-03-13T11:21:20.437Z,19.89
2023-03-13T11:23:53.675Z,19.75
2023-03-13T11:26:35.325Z,20.05
2023-03-13T11:29:27.386Z,20.36
2023-03-13T11:32:00.746Z,20.90
2023-03-13T11:34:44.429Z,20.74
2023-03-13T11:37:16.365Z,20.02
2023-03-13T11:40:10.146Z,20.02
2023-03-13T11:42:57.450Z,20.24
2023-03-13T11:45:39.653Z,20.03
2023-03-13T11:48:09.798Z,20.29
2023-03-13T11:50:52.757Z,20.88
2023-03-13T11:53:39.919Z,20.62
2023-03-13T11:56:17.606Z,20.59
2023-03-13T11:59:24.817Z,20.89
2023-03-13T12:01:59.570Z,21.14
2023-03-13T12:04:44.369Z,21.21
2023-03-13T12:07:34.539Z,20.87
2023-03-13T12:10:13.812Z,21.18
2023-03-13T12:12:56.850Z,20.98
2023-03-13T12:15:43.549Z,20.58
2023-03-13T12:18:25.147Z,20.47
2023-03-13T12:21:04.659Z,20.13
2023-03-13T12:23:37.438Z,20.58
2023-03-13T12:26:21.106Z,20.49
2023-03-13T12:29:27.079Z,20.74
2023-03-13T12:32:00.371Z,20.64
2023-03-13T12:35:06.902Z,20.98
2023-03-13T12:37:55.193Z,21.05
2023-03-13T12:40:28.586Z,21.68
2023-03-13T12:43:08.614Z,22.00
2023-03-13T12:45:39.089Z,21.95
2023-03-13T12:48:26.934Z,22.22
2023-03-13T12:51:13.590Z,22.45
2023-03-13T12:53:50.507Z,22.62
2023-03-13T12:56:36.272Z,22.48
2023-03-13T12:59:07.393Z,22.55
2023-03-13T13:02:03.804Z,22.52
2023-03-13T13:04:33.837Z,22.36
2023-03-13T13:07:04.050Z,21.76
2023-03-13T13:09:37.462Z,21.59
2023-03-13T13:12:21.497Z,22.06
2023-03-13T13:14:49.444Z,22.43
2023-03-13T13:17:39.108Z,22.30
2023-03-13T13:20:31.100Z,22.26
2023-03-13T13:23:26.580Z,22.20
2023-03-13T13:25:56.079Z,22.22
2023-03-13T13:28:35.143Z,22.54
2023-03-13T13:31:03.583Z,22.66
2023-03-13T13:33:38.152Z,22.43
2023-03-13T13:36:09.505Z,22.08
2023-03-13T13:38:42.753Z,21.88
2023-03-13T13:41:11.660Z,21.71
2023-03-13T13:43:42.105Z,21.96
2023-03-13T13:46:30.058Z,21.99
2023-03-13T13:49:08.777Z,21.89
2023-03-13T13:51:41.075Z,22.22
2023-03-13T13:54:12.817Z,21.92
2023-03-13T13:56:50.241Z,22.17
2023-03-13T13:59:22.405Z,22.07
2023-03-13T14:02:21.032Z,22.21
2023-03-13T14:05:06.534Z,21.94
2023-03-13T14:07:41.640Z,21.99
2023-03-13T14:10:34.402Z,21.92
2023-03-13T14:13:11.273Z,21.67
2023-03-13T14:15:46.293Z,22.02
2023-03-13T14:18:23.029Z,22.42
2023-03-13T14:21:01.093Z,22.54
2023-03-13T14:23:46.110Z,22.81
2023-03-13T14:26:22.482Z,22.46
2023-03-13T14:28:54.495Z,22.06
2023-03-13T14:31:33.411Z,22.31
2023-03-13T14:34:08.317Z,22.04
2023-03-13T14:37:17.589Z,22.60
2023-03-13T14:39:49.385Z,22.76
2023-03-13T14:42:18.644Z,23.06
2023-03-13T14:44:49.271Z,22.84
2023-03-13T14:47:25.691Z,22.68
2023-03-13T14:50:04.988Z,22.87
2023-03-13T14:52:34.103Z,23.08
2023-03-13T14:55:10.565Z,23.02
2023-03-13T14:57:41.089Z,23.81
2023-03-13T15:00:35.725Z,23.51
2023-03-13T15:03:17.125Z,23.43
2023-03-13T15:06:15.026Z,23.55
2023-03-13T15:08:48.108Z,23.57
2023-03-13T15:11:26.316Z,23.47
2023-03-13T15:13:55.308Z,23.63
2023-03-13T15:16:24.046Z,23.08
2023-03-13T15:18:52.754Z,23.48
2023-03-13T15:21:22.632Z,23.55
2023-03-13T15:23:53.322Z,23.75
2023-03-13T15:26:22.725Z,23.86
2023-03-13T15:28:51.132Z,23.35
2023-03-13T15:31:19.182Z,23.44
2023-03-13T15:33:47.454Z,23.21
2023-03-13T15:36:21.501Z,22.70
2023-03-13T15:38:51.821Z,22.40
2023-03-13T15:41:23.131Z,22.35
2023-03-13T15:43:52.831Z,23.08
2023-03-13T15:46:21.303Z,23.02
2023-03-13T15:48:51.464Z,22.90
2023-03-13T15:51:21.054Z,23.08
2023-03-13T15:53:49.638Z,23.47
2023-03-13T15:56:20.010Z,23.28
2023-03-13T15:58:51.588Z,22.91
2023-03-13T16:01:23.270Z,23.06
2023-03-13T16:03:51.771Z,23.27
2023-03-13T16:06:28.331Z,22.66
2023-03-13T16:09:01.603Z,22.43
2023-03-13T16:11:29.946Z,22.36
2023-03-13T16:14:00.540Z,22.91
2023-03-13T16:16:31.314Z,22.98
2023-03-13T16:19:00.720Z,23.19
2023-03-13T16:21:30.376Z,23.01
2023-03-13T16:23:59.305Z,22.76
2023-03-13T16:26:29.299Z,22.86
2023-03-13T16:28:58.258Z,23.00
2023-03-13T16:31:28.584Z,23.25
2023-03-13T16:33:58.026Z,23.27
2023-03-13T16:36:30.565Z,23.23
2023-03-13T16:38:59.902Z,23.24
2023-03-13T16:41:28.679Z,23.05
2023-03-13T16:43:57.497Z,23.61
2023-03-13T16:46:36.086Z,23.66
2023-03-13T16:49:04.474Z,23.36
2023-03-13T16:51:34.284Z,23.32
2023-03-13T16:54:03.657Z,23.58
2023-03-13T16:56:40.169Z,23.28
2023-03-13T16:59:15.383Z,23.27
2023-03-13T17:01:44.788Z,23.97
2023-03-13T17:04:13.395Z,24.14
2023-03-13T17:06:42.596Z,23.97
2023-03-13T17:09:12.793Z,24.06
2023-03-13T17:11:44.172Z,23.82
2023-03-13T17:14:13.689Z,23.47
2023-03-13T17:16:43.162Z,23.56
2023-03-13T17:19:14.770Z,23.35
2023-03-13T17:21:42.788Z,23.82
2023-03-13T17:24:10.877Z,23.69
2023-03-13T17:26:42.349Z,24.15
2023-03-13T17:29:17.026Z,23.89
2023-03-13T17:31:45.134Z,23.78
2023-03-13T17:34:16.930Z,23.90
2023-03-13T17:36:45.776Z,23.65
2023-03-13T17:39:14.752Z,24.28
2023-03-13T17:41:42.865Z,24.66
2023-03-13T17:44:11.172Z,24.76
2023-03-13T17:46:47.019Z,25.57
2023-03-13T17:49:17.282Z,25.57
2023-03-13T17:51:46.442Z,25.38
2023-03-13T17:54:16.002Z,25.65
2023-03-13T17:56:44.773Z,25.51
2023-03-13T17:59:17.517Z,25.80
2023-03-13T18:01:48.343Z,25.35
2023-03-13T18:04:21.360Z,25.59
2023-03-13T18:06:50.544Z,25.64
2023-03-13T18:09:20.817Z,25.51
2023-03-13T18:11:50.048Z,25.54
2023-03-13T18:14:19.620Z,25.18
2023-03-13T18:16:50.749Z,25.19
2023-03-13T18:19:22.400Z,25.57
2023-03-13T18:21:54.301Z,24.86
2023-03-13T18:24:28.090Z,24.72
2023-03-13T18:26:57.179Z,25.23
2023-03-13T18:29:29.472Z,25.50
2023-03-13T18:31:59.010Z,25.25
2023-03-13T18:34:27.696Z,25.87
2023-03-13T18:36:55.979Z,25.13
2023-03-13T18:39:25.403Z,25.26
2023-03-13T18:41:53.515Z,25.68
2023-03-13T18:44:23.055Z,25.58
2023-03-13T18:46:52.101Z,25.51
2023-03-13T18:49:23.598Z,25.47
2023-03-13T18:51:53.328Z,25.25
2023-03-13T18:54:21.755Z,25.56
2023-03-13T18:56:50.979Z,25.37
2023-03-13T18:59:20.883Z,25.73
2023-03-13T19:01:49.192Z,26.49
2023-03-13T19:04:18.209Z,26.24
2023-03-13T19:06:50.982Z,26.10
2023-03-13T19:09:42.138Z,26.60
2023-03-13T19:12:10.208Z,26.51
2023-03-13T19:14:38.965Z,26.95
2023-03-13T19:17:07.492Z,26.55
2023-03-13T19:19:35.677Z,26.86
2023-03-13T19:22:05.515Z,26.98
2023-03-13T19:24:34.111Z,26.36
2023-03-13T19:27:13.080Z,25.99
2023-03-13T19:29:42.099Z,25.60
2023-03-13T19:32:17.173Z,25.87
2023-03-13T19:34:45.293Z,26.27
2023-03-13T19:37:14.437Z,26.09
2023-03-13T19:39:42.773Z,26.24
2023-03-13T19:42:11.736Z,26.81
2023-03-13T19:44:44.664Z,26.38
2023-03-13T19:47:14.708Z,26.72
2023-03-13T19:49:43.120Z,26.29
2023-03-13T19:52:11.966Z,25.98
2023-03-13T19:54:40.040Z,26.40
2023-03-13T19:57:11.385Z,26.41
2023-03-13T19:59:40.254Z,26.92
2023-03-13T20:02:11.574Z,26.42
2023-03-13T20:04:45.308Z,26.44
2023-03-13T20:07:13.638Z,26.77
2023-03-13T20:09:46.726Z,27.05
2023-03-13T20:12:17.330Z,26.59
2023-03-13T20:14:45.561Z,26.63
2023-03-13T20:17:13.972Z,26.27
2023-03-13T20:19:41.954Z,26.59
2023-03-13T20:22:10.387Z,26.61
2023-03-13T20:24:38.981Z,27.14
2023-03-13T20:27:07.828Z,26.97
2023-03-13T20:29:37.691Z,26.17
2023-03-13T20:32:06.049Z,25.57
2023-03-13T20:34:36.630Z,26.08
2023-03-13T20:37:04.875Z,26.00
2023-03-13T20:39:37.532Z,26.43
2023-03-13T20:42:10.648Z,26.55
2023-03-13T20:47:35.811Z,32.33
2023-03-13T20:50:04.267Z,29.24
2023-03-13T20:52:33.240Z,28.32
2023-03-13T20:55:01.229Z,27.67
2023-03-13T20:57:32.701Z,27.36
2023-03-13T21:00:01.151Z,27.12
2023-03-13T21:02:29.413Z,27.31
2023-03-13T21:04:57.917Z,27.08
2023-03-13T21:07:26.115Z,26.92
2023-03-13T21:09:54.193Z,26.83
2023-03-13T21:12:23.081Z,26.64
2023-03-13T21:14:55.098Z,26.96
2023-03-13T21:17:29.206Z,26.90
2023-03-13T21:19:58.236Z,26.79
2023-03-13T21:22:28.521Z,26.87
2023-03-13T21:24:57.107Z,26.37
2023-03-13T21:27:25.161Z,26.82
2023-03-13T21:29:54.683Z,26.68
2023-03-13T21:32:23.329Z,26.73
2023-03-13T21:34:51.668Z,26.77
2023-03-13T21:37:20.038Z,27.06
2023-03-13T21:39:52.194Z,26.84
2023-03-13T21:42:20.508Z,26.93
2023-03-13T21:44:48.871Z,26.51
2023-03-13T21:47:26.770Z,26.53
2023-03-13T21:49:54.777Z,26.73
2023-03-13T21:52:23.396Z,26.52
2023-03-13T21:54:52.311Z,26.67
2023-03-13T21:57:20.600Z,26.63
2023-03-13T22:00:00.622Z,26.75
2023-03-13T22:02:29.472Z,26.85
2023-03-13T22:04:57.581Z,26.70
2023-03-13T22:07:25.810Z,26.64
2023-03-13T22:09:54.014Z,26.11
2023-03-13T22:12:23.723Z,26.33
2023-03-13T22:14:53.870Z,26.42
2023-03-13T22:17:28.076Z,26.79
2023-03-13T22:19:56.079Z,27.36
2023-03-13T22:22:25.662Z,27.47
2023-03-13T22:24:54.450Z,26.87
2023-03-13T22:27:24.281Z,27.03
2023-03-13T22:29:52.742Z,27.03
2023-03-13T22:32:21.133Z,26.61
2023-03-13T22:34:49.745Z,26.80
2023-03-13T22:37:22.339Z,26.84
2023-03-13T22:39:54.036Z,26.32
2023-03-13T22:42:22.701Z,26.42
2023-03-13T22:44:50.877Z,26.39
2023-03-13T22:47:19.168Z,26.33
2023-03-13T22:49:47.038Z,26.16
2023-03-13T22:52:15.047Z,27.00
2023-03-13T22:54:42.976Z,26.87
2023-03-13T22:57:11.072Z,27.21
2023-03-13T22:59:39.154Z,27.13
2023-03-13T23:02:08.527Z,27.36
2023-03-13T23:04:36.615Z,27.88
2023-03-13T23:07:05.940Z,27.26
2023-03-13T23:09:34.496Z,26.60
2023-03-13T23:12:02.705Z,26.11
2023-03-13T23:14:32.409Z,27.66
2023-03-13T23:17:00.776Z,27.06
2023-03-13T23:19:28.989Z,26.97
2023-03-13T23:21:56.935Z,27.18
2023-03-13T23:24:25.045Z,27.50
2023-03-13T23:26:58.031Z,27.55
2023-03-13T23:29:26.051Z,27.56
2023-03-13T23:31:54.803Z,27.88
2023-03-13T23:34:22.906Z,27.84
2023-03-13T23:36:51.057Z,27.46
2023-03-13T23:39:23.283Z,27.25
2023-03-13T23:41:51.384Z,27.24
2023-03-13T23:44:19.526Z,27.50
2023-03-13T23:46:47.704Z,27.88
2023-03-13T23:49:15.913Z,27.99
2023-03-13T23:51:47.265Z,27.67
2023-03-13T23:54:16.970Z,27.86
2023-03-13T23:56:45.138Z,27.28
2023-03-13T23:59:13.216Z,27.58
